Time;durP1;ratioP1;P1;durP2;ratioP2;P2;SDS_P1;SDS_P2;PMS_P1;PMS_P2;Temp;Humidity;BMP_temperature;BMP_pressure;BME280_temperature;BME280_humidity;BME280_pressure;Samples;Min_cycle;Max_cycle;Signal;HPM_P1;HPM_P2
2022/01/26 05:17:01;;;;;;;110.78;43.33;;;;;;;-3.69;100.00;101495.41;5566006;32;182248;-87
2022/01/26 05:20:07;;;;;;;113.65;42.13;;;;;;;-3.74;100.00;101496.09;5552164;32;33871;-87
2022/01/26 05:23:10;;;;;;;107.40;42.30;;;;;;;-3.74;100.00;101501.28;5551521;32;34588;-87
2022/01/26 05:26:13;;;;;;;99.70;39.75;;;;;;;-3.72;100.00;101492.72;5554791;32;33940;-87
2022/01/26 05:29:16;;;;;;;102.28;40.47;;;;;;;-3.75;100.00;101494.34;5557256;32;34896;-87
2022/01/26 05:32:19;;;;;;;95.72;39.22;;;;;;;-3.84;100.00;101498.47;5554551;32;34589;-87
2022/01/26 05:35:22;;;;;;;99.10;39.83;;;;;;;-3.84;100.00;101495.88;5550780;32;34126;-87
2022/01/26 05:38:25;;;;;;;105.70;40.35;;;;;;;-3.82;100.00;101490.72;5550737;32;34795;-87
2022/01/26 05:41:28;;;;;;;92.72;38.85;;;;;;;-3.68;100.00;101497.16;5549435;32;34100;-87
2022/01/26 05:44:30;;;;;;;94.28;39.33;;;;;;;-3.62;100.00;101508.53;5549698;32;33563;-87
2022/01/26 05:47:34;;;;;;;93.57;40.12;;;;;;;-3.59;100.00;101501.72;5549140;32;35226;-88
2022/01/26 05:50:38;;;;;;;92.80;37.97;;;;;;;-3.55;100.00;101513.06;5547114;32;34723;-88
2022/01/26 05:53:41;;;;;;;92.78;38.97;;;;;;;-3.50;100.00;101518.37;5545358;32;34754;-88
2022/01/26 05:56:47;;;;;;;84.62;37.58;;;;;;;-3.57;100.00;101513.00;5534922;32;34528;-88
2022/01/26 05:59:53;;;;;;;99.70;39.30;;;;;;;-3.61;100.00;101512.88;5531862;32;34561;-88
2022/01/26 06:02:56;;;;;;;92.80;39.15;;;;;;;-3.73;100.00;101511.72;5530475;32;34579;-88
2022/01/26 06:05:59;;;;;;;92.57;39.30;;;;;;;-3.77;100.00;101511.59;5528897;32;33536;-88
2022/01/26 06:09:02;;;;;;;87.62;38.35;;;;;;;-3.85;100.00;101509.69;5530163;32;34476;-88
2022/01/26 06:12:06;;;;;;;90.75;38.50;;;;;;;-3.87;100.00;101510.47;5527312;32;34032;-88
2022/01/26 06:15:08;;;;;;;93.40;40.80;;;;;;;-3.88;100.00;101513.91;5533959;32;34718;-88
2022/01/26 06:18:11;;;;;;;99.05;40.30;;;;;;;-3.93;100.00;101518.94;5545477;32;34035;-91
2022/01/26 06:21:14;;;;;;;98.97;38.92;;;;;;;-4.00;100.00;101517.91;5546544;32;34898;-92
2022/01/26 06:24:17;;;;;;;94.15;39.20;;;;;;;-4.00;100.00;101522.19;5541197;32;33809;-92
2022/01/26 06:27:20;;;;;;;106.97;42.88;;;;;;;-3.98;100.00;101515.34;5528757;32;34222;-92
2022/01/26 06:30:24;;;;;;;99.55;41.33;;;;;;;-3.97;100.00;101507.59;5515599;32;33723;-89
2022/01/26 06:33:27;;;;;;;101.80;42.90;;;;;;;-3.88;100.00;101511.31;5515201;32;33569;-87
2022/01/26 06:36:30;;;;;;;105.40;43.28;;;;;;;-3.81;100.00;101511.50;5528250;32;33935;-88
2022/01/26 06:39:33;;;;;;;103.93;46.42;;;;;;;-3.72;100.00;101512.59;5523370;32;34163;-88
2022/01/26 06:42:50;;;;;;;106.82;43.33;;;;;;;-3.68;100.00;101517.91;5534939;32;33637;-88
2022/01/26 06:46:07;;;;;;;102.75;42.40;;;;;;;-3.57;100.00;101518.19;5530589;32;34734;-88
2022/01/26 06:52:25;;;;;;;88.05;38.38;;;;;;;-3.41;100.00;101527.25;5527042;32;34401;-88
2022/01/26 06:55:28;;;;;;;83.65;37.08;;;;;;;-3.28;100.00;101514.59;5533690;32;34045;-89
2022/01/26 06:58:31;;;;;;;72.07;32.50;;;;;;;-3.07;100.00;101524.66;5534152;32;34355;-89
2022/01/26 07:01:34;;;;;;;67.43;30.62;;;;;;;-2.82;100.00;101524.41;5521891;32;33842;-89
2022/01/26 07:04:37;;;;;;;63.42;27.92;;;;;;;-2.41;100.00;101518.41;5520062;32;33854;-87
2022/01/26 07:07:41;;;;;;;61.70;28.30;;;;;;;-2.16;100.00;101514.63;5531934;32;34068;-89
2022/01/26 07:10:45;;;;;;;54.22;24.58;;;;;;;-1.98;100.00;101514.13;5515655;32;33723;-88
2022/01/26 07:13:48;;;;;;;53.60;25.40;;;;;;;-1.74;100.00;101518.06;5521949;32;33823;-89
2022/01/26 07:23:22;;;;;;;50.28;23.45;;;;;;;-1.07;100.00;101503.66;5528304;32;34202;-89
2022/01/26 07:26:28;;;;;;;49.97;25.10;;;;;;;-0.82;100.00;101499.72;5532305;32;34936;-89
2022/01/26 07:29:32;;;;;;;51.63;24.83;;;;;;;-0.54;100.00;101496.66;5528028;32;34695;-89
2022/01/26 07:32:37;;;;;;;49.08;25.33;;;;;;;-0.30;100.00;101493.50;5518280;32;34218;-89
2022/01/26 07:35:39;;;;;;;53.87;24.50;;;;;;;-0.03;100.00;101499.94;5521354;32;34460;-88
2022/01/26 07:38:43;;;;;;;47.50;23.52;;;;;;;0.22;100.00;101496.72;5539250;32;34749;-88
2022/01/26 07:41:45;;;;;;;43.00;20.33;;;;;;;0.55;100.00;101499.69;5534263;32;34125;-89
2022/01/26 07:44:51;;;;;;;35.22;17.70;;;;;;;0.92;99.65;101498.28;5522610;32;35180;-88
2022/01/26 07:47:54;;;;;;;35.42;18.35;;;;;;;1.05;100.00;101495.75;5541330;32;35191;-88
2022/01/26 07:50:58;;;;;;;34.88;17.10;;;;;;;1.31;98.49;101501.19;5534104;32;35091;-91
2022/01/26 07:54:01;;;;;;;37.85;19.37;;;;;;;1.41;97.94;101498.66;5531894;32;34279;-91
2022/01/26 07:57:07;;;;;;;36.97;18.60;;;;;;;1.56;95.89;101505.72;5520888;32;34521;-87
2022/01/26 08:00:11;;;;;;;34.60;17.65;;;;;;;1.57;95.58;101510.06;5531150;32;34661;-86
2022/01/26 08:03:15;;;;;;;33.45;16.98;;;;;;;1.77;94.31;101497.13;5541987;32;34083;-87
2022/01/26 08:06:18;;;;;;;33.95;16.58;;;;;;;1.80;93.67;101504.97;5537089;32;34683;-86
2022/01/26 08:09:21;;;;;;;31.90;15.63;;;;;;;1.93;94.02;101497.16;5529239;32;33612;-85
2022/01/26 08:12:23;;;;;;;27.75;15.27;;;;;;;1.87;92.83;101498.03;5524595;32;34354;-86
2022/01/26 08:15:46;;;;;;;31.65;15.40;;;;;;;1.86;93.19;101504.13;5515637;32;34471;-85
2022/01/26 08:18:49;;;;;;;30.52;15.80;;;;;;;2.20;91.53;101493.78;5523735;32;34678;-86
2022/01/26 08:21:52;;;;;;;29.73;15.15;;;;;;;2.06;92.23;101491.09;5519525;32;33790;-85
2022/01/26 08:24:55;;;;;;;28.08;14.85;;;;;;;2.02;92.65;101489.38;5529717;32;33922;-86
2022/01/26 08:28:06;;;;;;;27.55;14.25;;;;;;;2.21;91.39;101494.66;5528023;32;33968;-85
2022/01/26 08:31:09;;;;;;;28.77;15.15;;;;;;;1.77;92.56;101494.50;5525991;32;34299;-86
2022/01/26 08:34:11;;;;;;;31.10;14.77;;;;;;;1.90;91.94;101491.94;5531703;32;33832;-86
2022/01/26 08:37:14;;;;;;;28.33;14.82;;;;;;;1.93;91.72;101490.19;5532937;32;34270;-87
2022/01/26 08:40:17;;;;;;;28.98;15.48;;;;;;;1.94;91.27;101483.22;5529624;32;33686;-86
2022/01/26 08:43:20;;;;;;;28.23;14.70;;;;;;;2.00;91.85;101494.59;5536448;32;34841;-85
2022/01/26 08:46:23;;;;;;;26.58;14.65;;;;;;;2.11;90.89;101492.00;5535605;32;34026;-86
2022/01/26 08:49:27;;;;;;;30.25;15.13;;;;;;;1.90;91.43;101490.16;5529305;32;35075;-88
2022/01/26 08:52:33;;;;;;;31.00;15.85;;;;;;;2.14;90.82;101488.53;5537771;32;34927;-88
2022/01/26 08:55:36;;;;;;;26.75;14.73;;;;;;;2.25;89.66;101494.66;5537137;32;34906;-87
2022/01/26 08:58:39;;;;;;;27.30;13.73;;;;;;;1.99;90.69;101497.19;5525541;32;33914;-87
2022/01/26 09:01:42;;;;;;;29.67;15.50;;;;;;;2.13;89.84;101495.53;5519358;32;34059;-87
2022/01/26 09:04:46;;;;;;;28.83;14.77;;;;;;;2.11;89.89;101493.75;5519507;32;34008;-83
2022/01/26 09:07:50;;;;;;;30.25;15.15;;;;;;;2.34;88.97;101498.16;5515216;32;33738;-84
2022/01/26 09:10:58;;;;;;;28.85;14.95;;;;;;;2.32;88.60;101498.19;5515796;32;34335;-84
2022/01/26 09:14:07;;;;;;;29.65;14.77;;;;;;;2.45;88.47;101498.22;5527445;32;34442;-85
2022/01/26 09:17:11;;;;;;;29.52;15.13;;;;;;;2.58;87.30;101494.75;5525227;32;32382;-83
2022/01/26 09:20:14;;;;;;;27.13;14.05;;;;;;;2.30;88.58;101502.53;5531509;32;33846;-84
2022/01/26 09:23:17;;;;;;;28.50;14.87;;;;;;;2.29;88.28;101498.16;5531628;32;33926;-85
2022/01/26 09:26:22;;;;;;;26.02;13.88;;;;;;;2.39;87.91;101491.22;5531358;32;34039;-85
2022/01/26 09:29:26;;;;;;;27.35;14.38;;;;;;;2.46;87.50;101492.97;5516800;32;34097;-84
2022/01/26 09:32:29;;;;;;;27.60;14.73;;;;;;;2.41;87.79;101495.59;5523794;32;34534;-85
2022/01/26 09:35:32;;;;;;;31.95;15.63;;;;;;;2.24;88.52;101495.53;5518193;32;35979;-90
2022/01/26 09:38:35;;;;;;;26.42;13.88;;;;;;;2.55;87.37;101493.00;5523762;32;34412;-90
2022/01/26 09:41:38;;;;;;;28.20;14.27;;;;;;;2.79;85.70;101490.41;5526808;32;34200;-90
2022/01/26 09:44:42;;;;;;;26.83;13.85;;;;;;;2.81;85.46;101493.88;5534123;32;35199;-85
2022/01/26 09:47:44;;;;;;;25.75;13.13;;;;;;;2.71;85.33;101494.75;5523554;32;33740;-84
2022/01/26 09:51:06;;;;;;;27.05;14.43;;;;;;;2.80;85.30;101493.03;5526062;32;34289;-84
2022/01/26 09:54:15;;;;;;;24.95;13.70;;;;;;;2.86;84.59;101496.53;5525707;32;34153;-86
2022/01/26 09:57:19;;;;;;;25.12;12.98;;;;;;;2.86;84.50;101497.38;5521614;32;34078;-86
2022/01/26 10:00:22;;;;;;;28.02;14.63;;;;;;;3.18;83.68;101499.13;5524094;32;33989;-86
2022/01/26 10:03:30;;;;;;;23.67;13.75;;;;;;;3.15;83.40;101499.13;5523794;32;33780;-86
2022/01/26 10:06:35;;;;;;;25.58;13.70;;;;;;;2.98;83.12;101493.91;5524873;32;34884;-85
2022/01/26 10:09:51;;;;;;;25.48;13.57;;;;;;;3.21;82.52;101493.88;5526284;32;34027;-84
2022/01/26 10:19:41;;;;;;;25.35;12.88;;;;;;;3.48;84.01;101475.47;5534787;32;34374;-84
2022/01/26 10:22:44;;;;;;;28.92;13.73;;;;;;;4.67;80.36;101478.41;5535048;32;33596;-86
2022/01/26 10:26:01;;;;;;;25.20;13.75;;;;;;;4.78;76.83;101473.06;5533641;32;34991;-85
2022/01/26 10:29:05;;;;;;;24.23;13.82;;;;;;;4.38;77.21;101468.97;5516460;32;34700;-86
2022/01/26 10:32:12;;;;;;;21.25;10.52;;;;;;;4.11;76.60;101460.34;5525041;32;34707;-85
2022/01/26 10:35:16;;;;;;;23.45;12.55;;;;;;;4.57;80.99;101460.06;5533425;32;34089;-85
2022/01/26 10:38:19;;;;;;;21.35;11.63;;;;;;;3.88;77.74;101456.97;5529880;32;34099;-89
2022/01/26 10:41:22;;;;;;;22.23;11.98;;;;;;;3.87;78.27;101454.37;5527076;32;32895;-90
2022/01/26 10:44:29;;;;;;;22.70;12.75;;;;;;;3.69;78.72;101440.44;5535485;32;34451;-89
2022/01/26 10:47:36;;;;;;;23.02;12.60;;;;;;;3.70;79.06;101438.66;5536319;32;34483;-85
2022/01/26 10:53:47;;;;;;;20.40;11.80;;;;;;;3.97;77.45;101449.94;5533418;32;33751;-85
2022/01/26 10:56:51;;;;;;;22.00;12.27;;;;;;;3.98;77.54;101442.03;5538790;32;34014;-85
2022/01/26 10:59:54;;;;;;;20.98;11.73;;;;;;;4.29;76.04;101438.38;5535627;32;33675;-84
2022/01/26 11:02:57;;;;;;;23.10;11.98;;;;;;;4.88;74.13;101434.44;5533678;32;32345;-84
2022/01/26 11:06:04;;;;;;;22.52;11.38;;;;;;;4.99;72.78;101428.16;5538897;32;33224;-83
2022/01/26 11:09:12;;;;;;;21.08;11.98;;;;;;;5.23;71.59;101422.69;5546310;32;35222;-85
2022/01/26 11:12:26;;;;;;;20.17;11.50;;;;;;;4.12;75.21;101427.97;5531036;32;34006;-85
2022/01/26 11:15:29;;;;;;;23.62;12.63;;;;;;;4.17;75.76;101432.31;5531562;32;33994;-85
2022/01/26 11:18:46;;;;;;;23.12;11.90;;;;;;;4.08;76.07;101429.75;5528884;32;34776;-85
2022/01/26 11:21:49;;;;;;;23.75;11.98;;;;;;;3.96;76.28;101425.41;5537915;32;34057;-86
2022/01/26 11:25:14;;;;;;;21.87;12.13;;;;;;;4.22;75.68;101429.66;5528006;32;34305;-85
2022/01/26 11:28:18;;;;;;;22.62;11.48;;;;;;;4.10;76.00;101437.59;5538894;32;34787;-85
2022/01/26 11:31:23;;;;;;;18.58;11.12;;;;;;;3.85;77.11;101432.47;5524076;32;35337;-85
2022/01/26 11:34:50;;;;;;;19.83;11.57;;;;;;;4.25;75.03;101426.13;5518987;32;33125;-85
2022/01/26 11:42:12;;;;;;;19.27;11.10;;;;;;;3.94;76.85;101424.56;5525833;32;33916;-86
2022/01/26 11:45:17;;;;;;;23.58;11.73;;;;;;;5.16;72.47;101413.09;5533484;32;34512;-87
2022/01/26 11:48:25;;;;;;;19.85;11.82;;;;;;;4.68;73.38;101420.56;5534905;32;33780;-86
2022/01/26 11:51:41;;;;;;;20.25;11.02;;;;;;;5.40;71.53;101404.94;5527007;32;33385;-86
2022/01/26 11:54:54;;;;;;;26.55;11.35;;;;;;;5.46;69.87;101406.66;5532642;32;34162;-86
2022/01/26 11:58:09;;;;;;;22.67;11.90;;;;;;;5.51;69.74;101419.75;5534587;32;35207;-86
2022/01/26 12:01:20;;;;;;;21.05;11.05;;;;;;;5.15;70.77;101414.00;5532571;32;34195;-84
2022/01/26 12:04:24;;;;;;;;;;;;;;;5.45;70.22;101396.13;5533711;32;34050;-84
2022/01/26 12:07:28;;;;;;;24.15;10.80;;;;;;;5.71;68.96;101402.81;5528558;32;35268;-84
2022/01/26 12:10:32;;;;;;;19.90;11.63;;;;;;;5.45;69.88;101389.13;5529136;32;34783;-84
2022/01/26 12:13:37;;;;;;;21.05;11.27;;;;;;;5.45;69.00;101386.50;5530975;32;34301;-85
2022/01/26 12:16:45;;;;;;;19.33;10.80;;;;;;;5.65;68.71;101388.84;5530160;32;34278;-85
2022/01/26 12:20:09;;;;;;;20.92;11.02;;;;;;;5.72;68.56;101386.13;5533541;32;34099;-85
2022/01/26 12:37:23;;;;;;;17.08;9.90;;;;;;;5.42;68.92;101364.59;5527438;32;32999;-84
2022/01/26 12:43:53;;;;;;;18.95;9.30;;;;;;;4.79;71.51;101357.41;5533694;32;34011;-88
2022/01/26 12:46:56;;;;;;;22.58;10.60;;;;;;;4.70;71.55;101349.59;5519198;32;34280;-90
2022/01/26 12:49:59;;;;;;;17.65;10.02;;;;;;;4.48;72.69;101357.66;5529880;32;33654;-90
2022/01/26 12:53:03;;;;;;;18.05;9.13;;;;;;;4.54;72.06;101344.44;5535304;32;35490;-85
2022/01/26 12:56:10;;;;;;;17.55;9.98;;;;;;;4.85;70.94;101352.06;5534321;32;33868;-85
2022/01/26 12:59:20;;;;;;;15.80;9.02;;;;;;;4.62;71.23;101348.78;5517800;32;33683;-85
2022/01/26 13:02:24;;;;;;;19.85;9.40;;;;;;;4.70;71.04;101347.84;5517860;32;34153;-85
2022/01/26 13:05:27;;;;;;;20.58;9.45;;;;;;;4.89;70.38;101341.50;5534047;32;33599;-85
2022/01/26 13:08:49;;;;;;;18.45;9.38;;;;;;;4.71;70.84;101346.06;5535115;32;35219;-86
2022/01/26 13:11:57;;;;;;;17.15;9.32;;;;;;;4.56;71.77;101350.59;5534204;32;33850;-83
2022/01/26 13:15:12;;;;;;;20.00;9.70;;;;;;;4.83;70.85;101345.94;5533403;32;33827;-84
2022/01/26 13:18:35;;;;;;;16.20;9.52;;;;;;;4.97;70.30;101340.53;5533048;32;33913;-83
2022/01/26 13:37:46;;;;;;;20.35;8.77;;;;;;;4.27;72.26;101337.72;5534496;32;34883;-83
2022/01/26 13:41:19;;;;;;;14.23;8.35;;;;;;;4.39;72.20;101339.34;5535319;32;34532;-88
2022/01/26 13:51:13;;;;;;;15.40;8.98;;;;;;;4.27;72.64;101342.97;5535593;32;34061;-83
2022/01/26 14:00:42;;;;;;;20.00;10.00;;;;;;;4.23;72.64;101347.34;5535310;32;34741;-83
2022/01/26 14:03:49;;;;;;;15.73;9.35;;;;;;;4.08;73.10;101347.47;5534869;32;33977;-83
2022/01/26 14:06:52;;;;;;;16.55;9.13;;;;;;;3.96;73.62;101348.41;5537686;32;34058;-85
2022/01/26 14:09:55;;;;;;;17.10;9.07;;;;;;;4.11;73.67;101348.31;5540372;32;34197;-83
2022/01/26 14:12:58;;;;;;;21.23;9.00;;;;;;;3.88;73.66;101358.97;5545678;32;34612;-83
2022/01/26 14:16:04;;;;;;;13.82;8.23;;;;;;;3.81;73.78;101349.41;5538956;32;34882;-83
2022/01/26 14:28:18;;;;;;;18.65;9.88;;;;;;;3.59;75.13;101344.25;5534020;32;34210;-83
2022/01/26 14:31:30;;;;;;;18.83;9.65;;;;;;;3.74;74.64;101341.56;5533500;32;33841;-84
2022/01/26 14:35:01;;;;;;;17.62;9.60;;;;;;;3.62;74.85;101358.22;5534295;32;33870;-87
2022/01/26 14:51:22;;;;;;;;;;;;;;;3.15;77.07;101349.69;5535840;32;34288;-84
2022/01/26 14:54:32;;;;;;;20.15;10.23;;;;;;;3.29;76.68;101356.63;5535799;32;34322;-84
2022/01/26 15:08:41;;;;;;;20.35;10.38;;;;;;;3.28;76.45;101361.00;5526109;32;34381;-83
2022/01/26 15:51:08;;;;;;;;;;;;;;;1.88;84.09;101375.03;5539523;32;34362;-84
2022/01/26 16:07:27;;;;;;;25.20;12.20;;;;;;;1.57;86.60;101384.53;5540243;32;34434;-85
2022/01/26 16:17:49;;;;;;;24.63;12.43;;;;;;;1.57;87.06;101395.00;5515522;32;33745;-84
